Murree Weather



Murree's Current Weather

Temprature 10.3o haze

haze

Rain: 0 %

Min Temprature10o
Max Temprature10.56o
Humidity87
Wind Speed3.6 m/h
Sun Rise07:01:55
Sun Set16:58:05
Current Time: 12-Dec-2019 01:25:49
Lat/Lon: 33.91, 73.39




Murree's Geo Location



Murree's Weather Forecast

Time Overall Temp Min Temp Max Temp Humidity Wind Speed Rain
12-Dec-2019 (Thu)
02:00:00 overcast clouds 9.550 5.570 9.550 66 2.51 m/h 0 %
05:00:00 light rain 7.640 4.650 7.640 67 2.53 m/h 6 %
08:00:00 overcast clouds 7.480 5.490 7.480 66 1.69 m/h 0 %
11:00:00 overcast clouds 11.200 10.200 11.200 52 1.26 m/h 0 %
14:00:00 light rain 10.260 10.260 10.260 54 2.13 m/h 138 %
17:00:00 light rain 6.420 6.420 6.420 81 2.11 m/h 119 %
20:00:00 light rain 4.630 4.630 4.630 96 2.01 m/h 244 %
23:00:00 light rain 4.420 4.420 4.420 94 1.43 m/h 162 %
13-Dec-2019 (Fri)
02:00:00 moderate rain 3.280 3.280 3.280 96 1.6 m/h 513 %
05:00:00 moderate rain 2.620 2.620 2.620 96 2.86 m/h 431 %
08:00:00 light rain 3.100 3.100 3.100 96 2.73 m/h 263 %
11:00:00 light rain 4.710 4.710 4.710 89 2.25 m/h 69 %
14:00:00 light rain 4.590 4.590 4.590 93 1.62 m/h 119 %
17:00:00 light rain 4.590 4.590 4.590 93 0.84 m/h 25 %
20:00:00 light rain 4.750 4.750 4.750 93 0.78 m/h 63 %
23:00:00 light rain 4.440 4.440 4.440 95 1.02 m/h 119 %
14-Dec-2019 (Sat)
02:00:00 light rain 4.220 4.220 4.220 95 1.05 m/h 81 %
05:00:00 light rain 3.180 3.180 3.180 95 0.93 m/h 113 %
08:00:00 broken clouds 3.780 3.780 3.780 95 1.38 m/h 0 %
11:00:00 light rain 6.350 6.350 6.350 80 2.09 m/h 100 %
14:00:00 light rain 7.580 7.580 7.580 73 1.79 m/h 163 %
17:00:00 light rain 5.790 5.790 5.790 80 1.14 m/h 175 %
20:00:00 overcast clouds 4.450 4.450 4.450 88 3.17 m/h 0 %
23:00:00 overcast clouds 3.160 3.160 3.160 87 2.42 m/h 0 %
15-Dec-2019 (Sun)
02:00:00 scattered clouds 2.320 2.320 2.320 82 2.64 m/h 0 %
05:00:00 few clouds 1.480 1.480 1.480 77 2.53 m/h 0 %
08:00:00 clear sky 2.090 2.090 2.090 73 3.04 m/h 0 %
11:00:00 clear sky 8.260 8.260 8.260 52 2.4 m/h 0 %
14:00:00 clear sky 9.950 9.950 9.950 42 1.65 m/h 0 %
17:00:00 clear sky 5.180 5.180 5.180 66 0.79 m/h 0 %
20:00:00 clear sky 3.050 3.050 3.050 70 1.95 m/h 0 %
23:00:00 clear sky 1.870 1.870 1.870 64 3.05 m/h 0 %
16-Dec-2019 (Mon)
02:00:00 few clouds 1.300 1.300 1.300 59 3.18 m/h 0 %
05:00:00 few clouds 0.820 0.820 0.820 59 3.5 m/h 0 %
08:00:00 broken clouds 1.810 1.810 1.810 58 3.57 m/h 0 %
11:00:00 broken clouds 8.550 8.550 8.550 40 2.89 m/h 0 %
14:00:00 overcast clouds 9.940 9.940 9.940 37 1.95 m/h 0 %
17:00:00 broken clouds 5.260 5.260 5.260 55 1.38 m/h 0 %
20:00:00 clear sky 2.500 2.500 2.500 61 3 m/h 0 %
23:00:00 clear sky 1.240 1.240 1.240 52 3.7 m/h 0 %

Famous Cities (61)